TimeMST,TemperatureF,Dew PointF,Humidity,Sea Level PressureIn,VisibilityMPH,Wind Direction,Wind SpeedMPH,Gust SpeedMPH,PrecipitationIn,Events,Conditions,WindDirDegrees,DateUTC
12:53 AM,72.0,19.0,13,29.68,10.0,SE,10.4,-,N/A,,Clear,140,2013-09-26 07:53:00
1:53 AM,69.1,19.9,15,29.68,10.0,SE,10.4,-,N/A,,Clear,140,2013-09-26 08:53:00
2:53 AM,68.0,21.9,17,29.67,10.0,SSE,9.2,-,N/A,,Clear,150,2013-09-26 09:53:00
3:53 AM,64.9,24.1,21,29.67,10.0,SE,4.6,-,N/A,,Clear,130,2013-09-26 10:53:00
4:53 AM,66.0,24.1,20,29.68,10.0,SSE,11.5,-,N/A,,Clear,150,2013-09-26 11:53:00
5:53 AM,64.9,26.1,23,29.69,10.0,SSE,10.4,-,N/A,,Clear,150,2013-09-26 12:53:00
6:53 AM,66.9,26.1,21,29.70,10.0,SE,12.7,-,N/A,,Clear,140,2013-09-26 13:53:00
7:53 AM,73.0,27.0,18,29.71,10.0,SE,9.2,-,N/A,,Clear,140,2013-09-26 14:53:00
8:53 AM,81.0,28.9,15,29.70,10.0,South,8.1,-,N/A,,Clear,180,2013-09-26 15:53:00
9:53 AM,84.9,30.9,14,29.70,10.0,South,12.7,19.6,N/A,,Clear,190,2013-09-26 16:53:00
10:53 AM,88.0,32.0,14,29.69,10.0,South,10.4,-,N/A,,Clear,190,2013-09-26 17:53:00
11:53 AM,90.0,35.1,14,29.67,10.0,SW,12.7,19.6,N/A,,Clear,220,2013-09-26 18:53:00
12:53 PM,91.9,36.0,14,29.63,10.0,SW,21.9,28.8,N/A,,Clear,220,2013-09-26 19:53:00
1:53 PM,93.0,36.0,13,29.62,10.0,SW,19.6,29.9,N/A,,Clear,220,2013-09-26 20:53:00
2:53 PM,91.9,36.0,14,29.61,10.0,SW,16.1,31.1,N/A,,Partly Cloudy,220,2013-09-26 21:53:00
3:53 PM,93.0,35.1,13,29.60,10.0,WSW,16.1,26.5,N/A,,Clear,250,2013-09-26 22:53:00
4:53 PM,91.0,36.0,14,29.59,10.0,SSW,18.4,28.8,N/A,,Clear,210,2013-09-26 23:53:00
5:53 PM,89.1,41.0,19,29.60,10.0,SW,12.7,-,N/A,,Mostly Cloudy,220,2013-09-27 00:53:00
6:53 PM,87.1,44.1,22,29.61,10.0,SW,11.5,-,N/A,,Scattered Clouds,220,2013-09-27 01:53:00
7:53 PM,82.9,52.0,34,29.64,10.0,West,18.4,25.3,N/A,,Overcast,280,2013-09-27 02:53:00
8:00 PM,82.9,52.0,34,29.77,10.0,West,17.3,25.3,N/A,,Overcast,270,2013-09-27 03:00:00
8:53 PM,80.1,52.0,38,29.66,10.0,West,12.7,-,N/A,,Overcast,280,2013-09-27 03:53:00
9:53 PM,78.1,50.0,37,29.68,10.0,WNW,9.2,-,N/A,,Scattered Clouds,300,2013-09-27 04:53:00
10:53 PM,75.9,54.0,46,29.69,10.0,WNW,8.1,-,N/A,,Partly Cloudy,300,2013-09-27 05:53:00
11:53 PM,75.0,55.9,51,29.69,10.0,WNW,5.8,-,N/A,,Overcast,290,2013-09-27 06:53:00